Disclaimer

Please do not use the information listed here in-flight or in-navigation, as they are not provided to us by the airports but are provided by volunteers, so they might be outdated.

Search


Regions


Airport information page

Radio informations:
Tower (TWR) - 118.8 MHz
Approach (APP) - 118.8 MHz

Airport informations:
Latitude: 47° 42' 11.79" N
Longitude: 022° 53' 08.52" E
Elevation: 405 feet - 123 meters
Operating hours: Remarks
Operating agency: Civil government, landing fees and diplomatic clearance may be required
Timezone: UTC+2(+3DT)
Fuel: N/A

Runway information:
01/19 - 8160 x 148 feet< - >2487 x 45 meters

Recent METARs:
LRSM 202200Z AUTO 14005KT 9999 -SN BKN030/// OVC040/// 07/03 Q1015
LRSM 202230Z AUTO 14006KT 9000 -SN SCT022/// BKN027/// BKN036/// 07/04 Q1015
LRSM 202300Z AUTO 13006KT 8000 -SN OVC022/// 06/05 Q1015

Airport on the map: